MDSD/SDQ METAR and TAF weather

Enter ICAO airport designator
Station Type Date Time Source
MDSD METAR 2019/08/18 08:00 UTC NOAA

MDSD 180800Z 04004KT 9999 FEW016CB SCT016 22/21 Q1015 CB/SE/S


Station Type Date Time Source
MDSD Decoded METAR 2019/08/18 08:00 UTC NOAA

Station name not available
Aug 18, 2019 - 04:00 AM EDT / 2019.08.18 0800 UTC
Wind: from the NE (040 degrees) at 5 MPH (4 KT):0
Visibility: greater than 7 mile(s):0
Sky conditions: partly cloudy
Weather: Cumulonimbus clouds observed
Temperature: 71 F (22 C)
Dew Point: 69 F (21 C)
Relative Humidity: 94%
Pressure (altimeter): 29.97 in. Hg (1015 hPa)
ob: MDSD 180800Z 04004KT 9999 FEW016CB SCT016 22/21 Q1015 CB/SE/S
cycle: 8

Station Type Date Time Source
MDSD TAF 2019/08/18 06:56 UTC NOAA

TAF MDSD 180400Z 1806/1906 02004KT 9999 FEW016CB BKN016 PROB30 1806/1812 8000 -RA FEW014CB BKN016

Example: see airport list